Ryoho Maru No.2 — JD2964 — position and weather

sailwx.info

Track history (hours):
 
Tides and Currents Weather Stations Pressure Air Temp Water Temp Dewpoint Dewpoint Depression Visibility Wind Speed Wind Dir Waves Ship Positions

Ryoho Maru No.2

Last reported at 2016-Nov-24 18:18 UTC. Time now 2016-Dec-05 00:30 UTC.
Position N 35°01' E 139°44'.
Warning: this ship's position is 10 days out of date.

Length 57 m; draft 4 m.

Type: Tanker. MMSI: 431001062.

Date/timePositionNaut miles runAvg speedWind from/ knotsBaromVisibWave heightAir tempDewpointWater temp
2016-Nov-24 18:18N 35°01' E 139°44'7 9.5
2016-Nov-24 17:32N 35°08' E 139°45'9 9.5
2016-Nov-24 16:33N 35°17' E 139°45'9 9.0
2016-Nov-24 15:33N 35°26' E 139°44'4 3.4
2016-Nov-24 14:32N 35°29' E 139°47'0 0.1
2016-Nov-24 13:32N 35°29' E 139°47'0 0.1
2016-Nov-24 12:32N 35°29' E 139°47'0 0.0
2016-Nov-24 11:32N 35°29' E 139°47'0 0.0
2016-Nov-24 10:23N 35°29' E 139°47'0 0.0
2016-Nov-24 09:32N 35°29' E 139°47'0 0.0
2016-Nov-24 08:32N 35°29' E 139°47'0 0.0
2016-Nov-24 07:32N 35°29' E 139°47'0 0.0
2016-Nov-24 06:32N 35°29' E 139°47'0 0.0
2016-Nov-24 05:32N 35°29' E 139°47'0 0.0
2016-Nov-24 04:32N 35°29' E 139°47'0 0.0
2016-Nov-24 03:32N 35°29' E 139°47'0 0.0
2016-Nov-24 02:32N 35°29' E 139°47'2 2.5
2016-Nov-24 01:32N 35°32' E 139°45'0 0.0
2016-Nov-24 00:32N 35°32' E 139°45'1 1.0
2016-Nov-23 23:33N 35°31' E 139°46'2 1.6
2016-Nov-23 22:31N 35°29' E 139°46'0 0.0
2016-Nov-23 21:31N 35°29' E 139°46'0 0.0
2016-Nov-23 20:31N 35°29' E 139°46'0 0.0
2016-Nov-23 19:31N 35°29' E 139°46'0 0.0
2016-Nov-23 18:31N 35°29' E 139°46'0 0.0
2016-Nov-23 17:31N 35°29' E 139°46'0 0.0
2016-Nov-23 16:31N 35°29' E 139°46'0 0.0
2016-Nov-23 15:31N 35°29' E 139°46'0 0.0
2016-Nov-23 14:31N 35°29' E 139°46'0 0.0
2016-Nov-23 13:31N 35°29' E 139°46'0 0.0
2016-Nov-23 12:31N 35°29' E 139°46'0 0.0
2016-Nov-23 11:31N 35°29' E 139°46'0 0.0
2016-Nov-23 10:31N 35°29' E 139°46'0 0.0
2016-Nov-23 09:31N 35°29' E 139°46'0 0.0
2016-Nov-23 08:31N 35°29' E 139°46'0 0.0
2016-Nov-23 07:28N 35°29' E 139°46'0 0.0
2016-Nov-23 06:31N 35°29' E 139°46'0 0.0
2016-Nov-23 03:31N 35°29' E 139°46'0 0.0
2016-Nov-23 02:31N 35°29' E 139°46'0 0.0
2016-Nov-23 00:31N 35°29' E 139°47'0 0.0
2016-Nov-22 23:31N 35°29' E 139°47'0 0.0
2016-Nov-22 22:25N 35°29' E 139°46'0 0.0
2016-Nov-22 20:31N 35°29' E 139°47'0 0.0
2016-Nov-22 19:31N 35°29' E 139°47'0 0.0
2016-Nov-22 17:31N 35°29' E 139°47'0 0.0
2016-Nov-22 16:31N 35°29' E 139°47'0 0.0
2016-Nov-22 15:31N 35°29' E 139°46'0 0.0
2016-Nov-22 14:31N 35°29' E 139°46'0 0.0
2016-Nov-22 13:31N 35°29' E 139°46'0 0.0
2016-Nov-22 10:31N 35°29' E 139°47'0 0.0
2016-Nov-22 09:31N 35°29' E 139°47'0 0.0
2016-Nov-22 08:31N 35°29' E 139°47'0 0.0
2016-Nov-22 07:31N 35°29' E 139°46'8 3.9
2016-Nov-22 05:33N 35°29' E 139°56'3 0.1
2016-Nov-20 22:21N 35°29' E 139°60'0 0.0
2016-Nov-20 17:33N 35°29' E 139°60'0 0.0
2016-Nov-20 12:15N 35°29' E 139°60'0 0.0
2016-Nov-20 05:18N 35°29' E 139°60'0 0.1
2016-Nov-20 04:30N 35°29' E 139°60'0 0.0
2016-Nov-19 20:33N 35°29' E 139°60'0 0.0
2016-Nov-19 19:21N 35°29' E 139°60'0 0.0
2016-Nov-19 17:33N 35°29' E 139°60'0 0.0
2016-Nov-19 16:27N 35°29' E 139°60'0 0.0
2016-Nov-19 05:12N 35°29' E 139°60'1 0.1
2016-Nov-18 14:33N 35°29' E 139°58'19 8.3
2016-Nov-18 12:13N 35°12' E 139°47'711.1
2016-Nov-18 11:33N 35°05' E 139°45'  
Track history (hours):
 
Tides and Currents Weather Stations Pressure Air Temp Water Temp Dewpoint Dewpoint Depression Visibility Wind Speed Wind Dir Waves Ship Positions

Ryoho Maru No.2

Last reported at 2016-Nov-24 18:18 UTC. Time now 2016-Dec-05 00:30 UTC.
Position N 35°01' E 139°44'.
Warning: this ship's position is 10 days out of date.

Length 57 m; draft 4 m.

Type: Tanker. MMSI: 431001062.

Date/timePositionNaut miles runAvg speedWind from/ knotsBaromVisibWave heightAir tempDewpointWater temp
2016-Nov-24 18:18N 35°01' E 139°44'7 9.5
2016-Nov-24 17:32N 35°08' E 139°45'9 9.5
2016-Nov-24 16:33N 35°17' E 139°45'9 9.0
2016-Nov-24 15:33N 35°26' E 139°44'4 3.4
2016-Nov-24 14:32N 35°29' E 139°47'0 0.1
2016-Nov-24 13:32N 35°29' E 139°47'0 0.1
2016-Nov-24 12:32N 35°29' E 139°47'0 0.0
2016-Nov-24 11:32N 35°29' E 139°47'0 0.0
2016-Nov-24 10:23N 35°29' E 139°47'0 0.0
2016-Nov-24 09:32N 35°29' E 139°47'0 0.0
2016-Nov-24 08:32N 35°29' E 139°47'0 0.0
2016-Nov-24 07:32N 35°29' E 139°47'0 0.0
2016-Nov-24 06:32N 35°29' E 139°47'0 0.0
2016-Nov-24 05:32N 35°29' E 139°47'0 0.0
2016-Nov-24 04:32N 35°29' E 139°47'0 0.0
2016-Nov-24 03:32N 35°29' E 139°47'0 0.0
2016-Nov-24 02:32N 35°29' E 139°47'2 2.5
2016-Nov-24 01:32N 35°32' E 139°45'0 0.0
2016-Nov-24 00:32N 35°32' E 139°45'1 1.0
2016-Nov-23 23:33N 35°31' E 139°46'2 1.6
2016-Nov-23 22:31N 35°29' E 139°46'0 0.0
2016-Nov-23 21:31N 35°29' E 139°46'0 0.0
2016-Nov-23 20:31N 35°29' E 139°46'0 0.0
2016-Nov-23 19:31N 35°29' E 139°46'0 0.0
2016-Nov-23 18:31N 35°29' E 139°46'0 0.0
2016-Nov-23 17:31N 35°29' E 139°46'0 0.0
2016-Nov-23 16:31N 35°29' E 139°46'0 0.0
2016-Nov-23 15:31N 35°29' E 139°46'0 0.0
2016-Nov-23 14:31N 35°29' E 139°46'0 0.0
2016-Nov-23 13:31N 35°29' E 139°46'0 0.0
2016-Nov-23 12:31N 35°29' E 139°46'0 0.0
2016-Nov-23 11:31N 35°29' E 139°46'0 0.0
2016-Nov-23 10:31N 35°29' E 139°46'0 0.0
2016-Nov-23 09:31N 35°29' E 139°46'0 0.0
2016-Nov-23 08:31N 35°29' E 139°46'0 0.0
2016-Nov-23 07:28N 35°29' E 139°46'0 0.0
2016-Nov-23 06:31N 35°29' E 139°46'0 0.0
2016-Nov-23 03:31N 35°29' E 139°46'0 0.0
2016-Nov-23 02:31N 35°29' E 139°46'0 0.0
2016-Nov-23 00:31N 35°29' E 139°47'0 0.0
2016-Nov-22 23:31N 35°29' E 139°47'0 0.0
2016-Nov-22 22:25N 35°29' E 139°46'0 0.0
2016-Nov-22 20:31N 35°29' E 139°47'0 0.0
2016-Nov-22 19:31N 35°29' E 139°47'0 0.0
2016-Nov-22 17:31N 35°29' E 139°47'0 0.0
2016-Nov-22 16:31N 35°29' E 139°47'0 0.0
2016-Nov-22 15:31N 35°29' E 139°46'0 0.0
2016-Nov-22 14:31N 35°29' E 139°46'0 0.0
2016-Nov-22 13:31N 35°29' E 139°46'0 0.0
2016-Nov-22 10:31N 35°29' E 139°47'0 0.0
2016-Nov-22 09:31N 35°29' E 139°47'0 0.0
2016-Nov-22 08:31N 35°29' E 139°47'0 0.0
2016-Nov-22 07:31N 35°29' E 139°46'8 3.9
2016-Nov-22 05:33N 35°29' E 139°56'3 0.1
2016-Nov-20 22:21N 35°29' E 139°60'0 0.0
2016-Nov-20 17:33N 35°29' E 139°60'0 0.0
2016-Nov-20 12:15N 35°29' E 139°60'0 0.0
2016-Nov-20 05:18N 35°29' E 139°60'0 0.1
2016-Nov-20 04:30N 35°29' E 139°60'0 0.0
2016-Nov-19 20:33N 35°29' E 139°60'0 0.0
2016-Nov-19 19:21N 35°29' E 139°60'0 0.0
2016-Nov-19 17:33N 35°29' E 139°60'0 0.0
2016-Nov-19 16:27N 35°29' E 139°60'0 0.0
2016-Nov-19 05:12N 35°29' E 139°60'1 0.1
2016-Nov-18 14:33N 35°29' E 139°58'19 8.3
2016-Nov-18 12:13N 35°12' E 139°47'711.1
2016-Nov-18 11:33N 35°05' E 139°45'  

Dump ship's entire track history